createdAt,value
2022-09-20T00:00:43.161Z,51.212036
2022-09-20T00:01:43.128Z,51.211994
2022-09-20T00:02:43.070Z,51.212051
2022-09-20T00:03:43.061Z,51.212002
2022-09-20T00:04:43.103Z,51.211994
2022-09-20T00:05:43.045Z,51.211998
2022-09-20T00:06:43.079Z,51.212090
2022-09-20T00:07:43.034Z,51.212288
2022-09-20T00:08:43.025Z,51.212307
2022-09-20T00:09:43.045Z,51.212467
2022-09-20T00:10:43.023Z,51.212440
2022-09-20T00:11:43.006Z,51.212383
2022-09-20T00:12:43.014Z,51.212616
2022-09-20T00:13:42.990Z,51.212513
2022-09-20T00:14:42.991Z,51.212360
2022-09-20T00:15:43.007Z,51.212307
2022-09-20T00:16:43.070Z,51.212296
2022-09-20T00:17:42.988Z,51.212280
2022-09-20T00:18:42.966Z,51.212280
2022-09-20T00:19:42.960Z,51.212376
2022-09-20T00:20:42.984Z,51.212391
2022-09-20T00:21:42.942Z,51.212479
2022-09-20T00:22:42.937Z,51.212528
2022-09-20T00:23:43.125Z,51.212406
2022-09-20T00:24:48.166Z,51.212353
2022-09-20T00:25:45.002Z,51.212368
2022-09-20T00:26:42.934Z,51.212391
2022-09-20T00:27:42.954Z,51.212418
2022-09-20T00:28:42.937Z,51.212490
2022-09-20T00:29:42.994Z,51.212425
2022-09-20T00:30:42.902Z,51.212456
2022-09-20T00:31:43.211Z,51.212498
2022-09-20T00:32:42.881Z,51.212132
2022-09-20T00:33:42.920Z,51.212070
2022-09-20T00:34:42.858Z,51.211906
2022-09-20T00:35:42.893Z,51.212086
2022-09-20T00:36:42.884Z,51.212315
2022-09-20T00:37:42.830Z,51.212120
2022-09-20T00:38:42.850Z,51.212143
2022-09-20T00:39:42.818Z,51.212078
2022-09-20T00:40:42.951Z,51.212097
2022-09-20T00:41:42.822Z,51.212269
2022-09-20T00:42:42.798Z,51.212326
2022-09-20T00:43:42.827Z,51.212257
2022-09-20T00:44:42.832Z,51.212173
2022-09-20T00:45:42.828Z,51.212189
2022-09-20T00:46:42.779Z,51.212124
2022-09-20T00:47:42.850Z,51.212086
2022-09-20T00:48:42.774Z,51.212166
2022-09-20T00:49:43.758Z,51.212177
2022-09-20T00:50:42.778Z,51.212204
2022-09-20T00:51:42.762Z,51.212227
2022-09-20T00:52:42.741Z,51.212215
2022-09-20T00:53:42.745Z,51.212193
2022-09-20T00:54:42.743Z,51.212215
2022-09-20T00:55:42.718Z,51.212162
2022-09-20T00:56:42.733Z,51.212196
2022-09-20T00:57:42.746Z,51.212215
2022-09-20T00:58:42.710Z,51.212193
2022-09-20T00:59:42.692Z,51.212189
2022-09-20T01:00:42.797Z,51.212189
2022-09-20T01:01:42.731Z,51.212215
2022-09-20T01:02:42.757Z,51.212254
2022-09-20T01:03:42.753Z,51.212200
2022-09-20T01:04:42.643Z,51.212303
2022-09-20T01:05:42.656Z,51.212219
2022-09-20T01:06:42.621Z,51.211994
2022-09-20T01:07:42.613Z,51.212036
2022-09-20T01:08:42.661Z,51.212032
2022-09-20T01:09:42.615Z,51.212097
2022-09-20T01:10:42.602Z,51.212082
2022-09-20T01:11:42.593Z,51.211975
2022-09-20T01:12:42.569Z,51.211884
2022-09-20T01:13:42.597Z,51.211853
2022-09-20T01:14:42.554Z,51.211761
2022-09-20T01:15:42.578Z,51.212242
2022-09-20T01:16:42.589Z,51.211926
2022-09-20T01:17:42.558Z,51.211967
2022-09-20T01:18:42.542Z,51.212120
2022-09-20T01:19:42.534Z,51.212158
2022-09-20T01:20:42.521Z,51.212055
2022-09-20T01:21:42.514Z,51.211983
2022-09-20T01:22:42.541Z,51.212002
2022-09-20T01:23:42.509Z,51.212032
2022-09-20T01:24:42.489Z,51.211987
2022-09-20T01:25:42.494Z,51.212055
2022-09-20T01:26:42.495Z,51.212162
2022-09-20T01:27:42.494Z,51.212112
2022-09-20T01:28:42.461Z,51.212067
2022-09-20T01:29:42.499Z,51.212112
2022-09-20T01:30:42.460Z,51.212254
2022-09-20T01:31:42.500Z,51.212250
2022-09-20T01:32:42.480Z,51.211662
2022-09-20T01:33:42.449Z,51.211765
2022-09-20T01:34:42.437Z,51.212067
2022-09-20T01:35:42.433Z,51.212177
2022-09-20T01:36:42.418Z,51.212173
2022-09-20T01:37:42.425Z,51.212124
2022-09-20T01:38:42.441Z,51.212143
2022-09-20T01:39:42.401Z,51.212029
2022-09-20T01:40:42.440Z,51.211956
2022-09-20T01:41:42.388Z,51.211948
2022-09-20T01:42:42.408Z,51.211929
2022-09-20T01:43:42.374Z,51.211910
2022-09-20T01:44:42.362Z,51.212227
2022-09-20T01:45:42.452Z,51.211998
2022-09-20T01:46:42.351Z,51.212147
2022-09-20T01:47:42.363Z,51.212112
2022-09-20T01:48:42.351Z,51.211853
2022-09-20T01:49:42.343Z,51.211906
2022-09-20T01:50:42.343Z,51.212025
2022-09-20T01:51:42.323Z,51.212086
2022-09-20T01:52:42.306Z,51.212173
2022-09-20T01:53:42.307Z,51.212093
2022-09-20T01:54:42.307Z,51.212025
2022-09-20T01:55:42.287Z,51.211773
2022-09-20T01:56:42.284Z,51.211891
2022-09-20T01:57:42.281Z,51.212029
2022-09-20T01:58:42.307Z,51.212090
2022-09-20T01:59:42.263Z,51.212120
2022-09-20T02:00:42.297Z,51.212021
2022-09-20T02:01:42.241Z,51.212002
2022-09-20T02:03:15.754Z,51.212021
2022-09-20T02:03:42.248Z,51.212051
2022-09-20T02:04:42.238Z,51.212170
2022-09-20T02:05:42.253Z,51.212044
2022-09-20T02:06:43.270Z,51.212021
2022-09-20T02:07:42.235Z,51.212002
2022-09-20T02:08:42.257Z,51.212051
2022-09-20T02:09:42.193Z,51.212067
2022-09-20T02:10:42.185Z,51.212036
2022-09-20T02:11:42.191Z,51.212051
2022-09-20T02:12:42.193Z,51.212036
2022-09-20T02:13:42.189Z,51.211922
2022-09-20T02:14:42.157Z,51.211903
2022-09-20T02:15:42.166Z,51.212017
2022-09-20T02:16:42.224Z,51.212017
2022-09-20T02:17:42.150Z,51.211956
2022-09-20T02:18:42.131Z,51.212036
2022-09-20T02:19:42.155Z,51.212040
2022-09-20T02:20:42.125Z,51.212082
2022-09-20T02:21:42.117Z,51.212078
2022-09-20T02:22:42.156Z,51.212105
2022-09-20T02:23:42.107Z,51.212128
2022-09-20T02:24:42.114Z,51.212139
2022-09-20T02:25:42.102Z,51.212093
2022-09-20T02:26:42.115Z,51.212063
2022-09-20T02:27:42.151Z,51.211994
2022-09-20T02:28:42.093Z,51.212025
2022-09-20T02:29:42.069Z,51.211929
2022-09-20T02:30:42.082Z,51.212109
2022-09-20T02:31:42.128Z,51.212151
2022-09-20T02:32:42.053Z,51.211967
2022-09-20T02:33:42.093Z,51.211971
2022-09-20T02:34:42.035Z,51.212002
2022-09-20T02:35:42.040Z,51.212029
2022-09-20T02:36:42.006Z,51.212078
2022-09-20T02:37:42.006Z,51.212082
2022-09-20T02:38:42.258Z,51.211998
2022-09-20T02:39:42.742Z,51.212097
2022-09-20T02:40:42.104Z,51.212074
2022-09-20T02:41:41.993Z,51.212132
2022-09-20T02:42:41.995Z,51.212086
2022-09-20T02:43:41.998Z,51.212013
2022-09-20T02:44:41.966Z,51.212021
2022-09-20T02:45:42.058Z,51.212017
2022-09-20T02:46:41.949Z,51.212021
2022-09-20T02:47:41.938Z,51.212032
2022-09-20T02:48:42.038Z,51.212021
2022-09-20T02:49:41.951Z,51.212048
2022-09-20T02:50:41.929Z,51.212051
2022-09-20T02:51:41.957Z,51.212154
2022-09-20T02:52:41.930Z,51.212105
2022-09-20T02:53:42.062Z,51.212067
2022-09-20T02:54:41.914Z,51.212036
2022-09-20T02:55:41.926Z,51.211971
2022-09-20T02:56:41.906Z,51.212173
2022-09-20T02:57:41.880Z,51.212147
2022-09-20T02:58:41.865Z,51.212105
2022-09-20T02:59:41.894Z,51.212059
2022-09-20T03:00:41.869Z,51.212105
2022-09-20T03:01:41.937Z,51.212166
2022-09-20T03:02:41.957Z,51.212105
2022-09-20T03:03:41.828Z,51.212082
2022-09-20T03:04:41.832Z,51.212170
2022-09-20T03:05:41.842Z,51.212105
2022-09-20T03:06:41.882Z,51.212063
2022-09-20T03:07:41.834Z,51.212040
2022-09-20T03:08:41.805Z,51.212173
2022-09-20T03:09:41.810Z,51.212124
2022-09-20T03:10:41.810Z,51.212086
2022-09-20T03:11:41.835Z,51.212101
2022-09-20T03:12:41.788Z,51.212040
2022-09-20T03:13:41.878Z,51.212112
2022-09-20T03:14:41.774Z,51.212063
2022-09-20T03:15:41.793Z,51.212044
2022-09-20T03:16:41.833Z,51.212120
2022-09-20T03:17:41.742Z,51.212128
2022-09-20T03:18:41.741Z,51.212032
2022-09-20T03:19:41.774Z,51.212124
2022-09-20T03:20:41.733Z,51.212151
2022-09-20T03:21:41.789Z,51.212139
2022-09-20T03:22:41.741Z,51.212143
2022-09-20T03:23:41.713Z,51.212124
2022-09-20T03:24:41.706Z,51.212090
2022-09-20T03:25:41.705Z,51.212128
2022-09-20T03:26:41.710Z,51.212063
2022-09-20T03:27:41.682Z,51.211876
2022-09-20T03:28:41.693Z,51.211830
2022-09-20T03:29:41.674Z,51.211864
2022-09-20T03:30:41.738Z,51.211990
2022-09-20T03:31:41.818Z,51.212051
2022-09-20T03:32:41.709Z,51.212078
2022-09-20T03:33:41.717Z,51.212021
2022-09-20T03:34:41.673Z,51.212261
2022-09-20T03:35:41.660Z,51.211826
2022-09-20T03:36:42.357Z,51.211926
2022-09-20T03:37:41.609Z,51.211994
2022-09-20T03:38:41.604Z,51.212006
2022-09-20T03:39:41.637Z,51.212128
2022-09-20T03:40:46.223Z,51.212143
2022-09-20T03:41:43.721Z,51.212151
2022-09-20T03:42:41.615Z,51.212120
2022-09-20T03:43:41.627Z,51.212078
2022-09-20T03:44:41.579Z,51.212074
2022-09-20T03:45:41.662Z,51.212147
2022-09-20T03:46:41.794Z,51.212082
2022-09-20T03:47:41.592Z,51.212124
2022-09-20T03:48:41.576Z,51.212166
2022-09-20T03:49:41.564Z,51.212189
2022-09-20T03:50:41.544Z,51.212181
2022-09-20T03:51:41.578Z,51.212166
2022-09-20T03:52:41.677Z,51.212154
2022-09-20T03:53:41.649Z,51.212139
2022-09-20T03:54:41.577Z,51.212193
2022-09-20T03:55:41.549Z,51.212208
2022-09-20T03:56:41.597Z,51.212124
2022-09-20T03:57:41.625Z,51.212147
2022-09-20T03:58:41.533Z,51.212177
2022-09-20T03:59:41.598Z,51.212177
2022-09-20T04:00:41.546Z,51.212196
2022-09-20T04:01:41.525Z,51.212170
2022-09-20T04:02:41.607Z,51.212208
2022-09-20T04:03:41.563Z,51.212173
2022-09-20T04:04:41.490Z,51.212097
2022-09-20T04:05:41.530Z,51.212124
2022-09-20T04:06:41.450Z,51.212238
2022-09-20T04:07:41.447Z,51.212250
2022-09-20T04:08:41.442Z,51.212204
2022-09-20T04:09:41.428Z,51.212147
2022-09-20T04:10:41.406Z,51.212181
2022-09-20T04:11:41.403Z,51.212269
2022-09-20T04:12:41.405Z,51.212372
2022-09-20T04:13:41.423Z,51.212307
2022-09-20T04:14:41.446Z,51.212124
2022-09-20T04:15:41.387Z,51.212254
2022-09-20T04:16:41.502Z,51.212219
2022-09-20T04:17:41.392Z,51.212269
2022-09-20T04:18:41.425Z,51.212257
2022-09-20T04:19:41.351Z,51.212254
2022-09-20T04:20:41.600Z,51.212193
2022-09-20T04:21:41.441Z,51.212109
2022-09-20T04:22:41.358Z,51.212170
2022-09-20T04:23:41.343Z,51.212215
2022-09-20T04:24:41.329Z,51.212318
2022-09-20T04:25:44.058Z,51.212200
2022-09-20T04:26:42.292Z,51.212093
2022-09-20T04:27:41.313Z,51.212090
2022-09-20T04:28:41.333Z,51.212055
2022-09-20T04:29:41.328Z,51.212101
2022-09-20T04:30:41.312Z,51.212139
2022-09-20T04:31:41.543Z,51.212147
2022-09-20T04:32:41.312Z,51.212162
2022-09-20T04:33:41.331Z,51.212158
2022-09-20T04:34:42.263Z,51.212162
2022-09-20T04:35:41.308Z,51.212162
2022-09-20T04:36:41.332Z,51.212173
2022-09-20T04:37:41.224Z,51.212204
2022-09-20T04:38:41.240Z,51.212212
2022-09-20T04:39:41.237Z,51.212196
2022-09-20T04:40:41.257Z,51.212063
2022-09-20T04:41:41.262Z,51.212162
2022-09-20T04:42:41.191Z,51.212158
2022-09-20T04:43:41.182Z,51.212196
2022-09-20T04:44:41.198Z,51.212212
2022-09-20T04:45:41.244Z,51.212029
2022-09-20T04:46:41.857Z,51.212147
2022-09-20T04:47:41.163Z,51.212139
2022-09-20T04:48:41.166Z,51.212151
2022-09-20T04:49:41.169Z,51.212166
2022-09-20T04:50:41.225Z,51.212135
2022-09-20T04:51:41.169Z,51.212151
2022-09-20T04:52:41.146Z,51.212166
2022-09-20T04:53:41.742Z,51.212158
2022-09-20T04:54:41.901Z,51.212181
2022-09-20T04:55:41.139Z,51.212189
2022-09-20T04:56:41.101Z,51.212166
2022-09-20T04:57:41.165Z,51.212208
2022-09-20T04:58:41.285Z,51.212162
2022-09-20T04:59:41.208Z,51.212181
2022-09-20T05:00:41.454Z,51.212166
2022-09-20T05:01:41.200Z,51.212166
2022-09-20T05:02:41.380Z,51.212170
2022-09-20T05:03:41.171Z,51.212193
2022-09-20T05:04:41.039Z,51.212212
2022-09-20T05:05:41.039Z,51.212166
2022-09-20T05:06:41.043Z,51.212170
2022-09-20T05:07:41.068Z,51.212143
2022-09-20T05:08:41.043Z,51.212128
2022-09-20T05:09:41.011Z,51.212116
2022-09-20T05:10:41.011Z,51.212135
2022-09-20T05:11:41.047Z,51.212101
2022-09-20T05:12:40.991Z,51.212120
2022-09-20T05:13:40.979Z,51.212120
2022-09-20T05:14:40.976Z,51.212181
2022-09-20T05:15:40.978Z,51.212269
2022-09-20T05:16:43.375Z,51.212208
2022-09-20T05:17:40.947Z,51.212234
2022-09-20T05:18:40.972Z,51.212208
2022-09-20T05:19:40.931Z,51.212124
2022-09-20T05:20:40.948Z,51.212177
2022-09-20T05:21:40.931Z,51.212257
2022-09-20T05:22:40.934Z,51.212154
2022-09-20T05:23:41.959Z,51.212376
2022-09-20T05:24:40.914Z,51.212204
2022-09-20T05:25:40.914Z,51.212139
2022-09-20T05:26:40.948Z,51.212193
2022-09-20T05:27:40.900Z,51.212124
2022-09-20T05:28:40.926Z,51.212177
2022-09-20T05:29:41.871Z,51.212254
2022-09-20T05:30:40.897Z,51.212276
2022-09-20T05:31:40.906Z,51.212204
2022-09-20T05:32:40.879Z,51.212193
2022-09-20T05:33:40.890Z,51.212143
2022-09-20T05:34:40.847Z,51.212196
2022-09-20T05:35:40.839Z,51.212231
2022-09-20T05:36:40.827Z,51.212177
2022-09-20T05:37:40.836Z,51.212128
2022-09-20T05:38:40.870Z,51.212166
2022-09-20T05:39:40.818Z,51.212139
2022-09-20T05:40:40.799Z,51.212166
2022-09-20T05:41:40.823Z,51.212151
2022-09-20T05:42:40.803Z,51.212112
2022-09-20T05:43:40.783Z,51.212093
2022-09-20T05:44:40.781Z,51.212196
2022-09-20T05:45:40.807Z,51.212166
2022-09-20T05:46:40.763Z,51.212173
2022-09-20T05:47:40.786Z,51.212162
2022-09-20T05:48:40.751Z,51.212269
2022-09-20T05:49:40.739Z,51.212234
2022-09-20T05:50:40.746Z,51.212219
2022-09-20T05:51:40.730Z,51.212189
2022-09-20T05:52:40.726Z,51.212177
2022-09-20T05:53:40.734Z,51.212151
2022-09-20T05:54:40.712Z,51.212109
2022-09-20T05:55:40.718Z,51.212139
2022-09-20T05:56:40.713Z,51.212170
2022-09-20T05:57:40.707Z,51.212162
2022-09-20T05:58:40.702Z,51.212177
2022-09-20T05:59:40.690Z,51.212173
2022-09-20T06:00:40.670Z,51.212173
2022-09-20T06:01:40.687Z,51.212185
2022-09-20T06:02:40.708Z,51.212147
2022-09-20T06:03:40.682Z,51.212177
2022-09-20T06:04:40.643Z,51.212162
2022-09-20T06:05:40.635Z,51.212154
2022-09-20T06:06:40.675Z,51.212120
2022-09-20T06:07:40.616Z,51.212093
2022-09-20T06:08:40.628Z,51.212086
2022-09-20T06:09:40.602Z,51.212006
2022-09-20T06:10:40.594Z,51.212196
2022-09-20T06:11:42.131Z,51.212112
2022-09-20T06:12:40.626Z,51.211998
2022-09-20T06:13:40.611Z,51.211964
2022-09-20T06:14:40.574Z,51.211929
2022-09-20T06:15:40.562Z,51.212051
2022-09-20T06:16:40.609Z,51.211926
2022-09-20T06:17:40.546Z,51.211987
2022-09-20T06:18:40.547Z,51.212021
2022-09-20T06:19:40.559Z,51.212109
2022-09-20T06:20:40.524Z,51.211987
2022-09-20T06:21:40.519Z,51.211929
2022-09-20T06:22:40.518Z,51.211937
2022-09-20T06:23:40.559Z,51.212006
2022-09-20T06:24:40.531Z,51.212063
2022-09-20T06:25:40.503Z,51.212227
2022-09-20T06:26:40.491Z,51.211929
2022-09-20T06:27:40.486Z,51.212067
2022-09-20T06:28:40.506Z,51.212158
2022-09-20T06:29:40.557Z,51.212009
2022-09-20T06:30:41.540Z,51.211861
2022-09-20T06:31:40.476Z,51.212051
2022-09-20T06:32:40.466Z,51.211853
2022-09-20T06:33:40.611Z,51.212006
2022-09-20T06:34:40.462Z,51.211987
2022-09-20T06:35:40.447Z,51.211849
2022-09-20T06:36:40.486Z,51.211792
2022-09-20T06:37:40.422Z,51.211773
2022-09-20T06:38:40.415Z,51.211823
2022-09-20T06:39:40.510Z,51.211842
2022-09-20T06:40:41.343Z,51.211777
2022-09-20T06:41:40.403Z,51.211670
2022-09-20T06:42:40.470Z,51.211514
2022-09-20T06:43:40.397Z,51.211613
2022-09-20T06:44:40.383Z,51.211880
2022-09-20T06:45:40.551Z,51.212040
2022-09-20T06:46:40.371Z,51.211849
2022-09-20T06:47:40.360Z,51.211788
2022-09-20T06:48:40.351Z,51.211884
2022-09-20T06:49:40.380Z,51.211868
2022-09-20T06:50:40.350Z,51.212036
2022-09-20T06:51:40.342Z,51.211628
2022-09-20T06:52:40.468Z,51.211838
2022-09-20T06:53:40.331Z,51.211987
2022-09-20T06:54:40.338Z,51.212082
2022-09-20T06:55:40.330Z,51.211945
2022-09-20T06:56:40.322Z,51.211906
2022-09-20T06:57:40.286Z,51.212032
2022-09-20T06:58:40.270Z,51.211918
2022-09-20T06:59:40.319Z,51.212048
2022-09-20T07:00:40.257Z,51.212109
2022-09-20T07:01:40.332Z,51.212109
2022-09-20T07:02:40.322Z,51.212109
2022-09-20T07:03:40.250Z,51.212124
2022-09-20T07:04:40.249Z,51.212147
2022-09-20T07:05:40.231Z,51.212124
2022-09-20T07:06:40.231Z,51.212090
2022-09-20T07:07:41.302Z,51.212154
2022-09-20T07:08:40.216Z,51.212101
2022-09-20T07:09:40.203Z,51.212070
2022-09-20T07:10:40.314Z,51.212120
2022-09-20T07:11:40.206Z,51.212112
2022-09-20T07:12:40.182Z,51.212086
2022-09-20T07:13:40.274Z,51.212063
2022-09-20T07:14:40.172Z,51.212051
2022-09-20T07:15:40.163Z,51.212166
2022-09-20T07:16:40.283Z,51.212139
2022-09-20T07:17:40.247Z,51.212101
2022-09-20T07:18:40.155Z,51.212067
2022-09-20T07:19:40.135Z,51.211872
2022-09-20T07:20:40.126Z,51.212040
2022-09-20T07:21:40.126Z,51.211998
2022-09-20T07:22:40.149Z,51.212093
2022-09-20T07:23:40.118Z,51.212093
2022-09-20T07:24:40.111Z,51.212181
2022-09-20T07:25:40.090Z,51.212112
2022-09-20T07:26:40.078Z,51.212116
2022-09-20T07:27:40.107Z,51.212215
2022-09-20T07:28:40.070Z,51.212177
2022-09-20T07:29:40.098Z,51.212116
2022-09-20T07:30:40.083Z,51.212105
2022-09-20T07:31:40.094Z,51.212147
2022-09-20T07:32:40.060Z,51.211964
2022-09-20T07:33:40.066Z,51.212116
2022-09-20T07:34:40.035Z,51.212093
2022-09-20T07:35:40.027Z,51.212147
2022-09-20T07:36:40.030Z,51.212124
2022-09-20T07:37:40.027Z,51.212112
2022-09-20T07:38:40.018Z,51.212029
2022-09-20T07:39:40.050Z,51.212116
2022-09-20T07:40:40.042Z,51.212082
2022-09-20T07:41:39.982Z,51.212120
2022-09-20T07:42:39.993Z,51.212120
2022-09-20T07:43:39.991Z,51.211990
2022-09-20T07:44:39.963Z,51.212067
2022-09-20T07:45:39.973Z,51.212120
2022-09-20T07:46:39.946Z,51.212093
2022-09-20T07:47:39.942Z,51.212070
2022-09-20T07:48:39.974Z,51.212040
2022-09-20T07:49:39.954Z,51.212029
2022-09-20T07:50:39.918Z,51.212025
2022-09-20T07:51:39.916Z,51.212051
2022-09-20T07:52:39.934Z,51.212200
2022-09-20T07:53:39.914Z,51.212234
2022-09-20T07:54:39.884Z,51.212143
2022-09-20T07:55:39.891Z,51.212112
2022-09-20T07:56:39.891Z,51.212143
2022-09-20T07:57:39.871Z,51.212101
2022-09-20T07:58:39.907Z,51.211956
2022-09-20T07:59:39.850Z,51.212017
2022-09-20T08:00:39.852Z,51.211929
2022-09-20T08:01:39.952Z,51.212063
2022-09-20T08:02:39.887Z,51.211971
2022-09-20T08:04:06.299Z,51.212040
2022-09-20T08:04:39.813Z,51.212063
2022-09-20T08:05:39.827Z,51.212021
2022-09-20T08:06:39.802Z,51.212162
2022-09-20T08:07:39.858Z,51.212219
2022-09-20T08:08:39.778Z,51.212341
2022-09-20T08:09:39.788Z,51.212227
2022-09-20T08:10:39.818Z,51.212112
2022-09-20T08:11:39.815Z,51.212029
2022-09-20T08:14:42.138Z,51.211922
2022-09-20T08:15:39.778Z,51.212189
2022-09-20T08:16:39.837Z,51.212139
2022-09-20T08:17:39.739Z,51.212158
2022-09-20T08:18:39.722Z,51.212181
2022-09-20T08:19:39.734Z,51.212029
2022-09-20T08:20:39.714Z,51.212135
2022-09-20T08:21:39.706Z,51.212212
2022-09-20T08:22:39.703Z,51.212223
2022-09-20T08:23:39.695Z,51.212132
2022-09-20T08:24:39.706Z,51.212044
2022-09-20T08:25:39.723Z,51.212166
2022-09-20T08:26:39.727Z,51.212250
2022-09-20T08:27:39.658Z,51.212097
2022-09-20T08:28:39.662Z,51.212162
2022-09-20T08:29:39.686Z,51.212078
2022-09-20T08:30:39.642Z,51.212280
2022-09-20T08:31:39.769Z,51.212048
2022-09-20T08:32:39.629Z,51.212151
2022-09-20T08:33:39.619Z,51.211994
2022-09-20T08:34:39.677Z,51.211826
2022-09-20T08:35:39.610Z,51.211987
2022-09-20T08:36:39.670Z,51.211929
2022-09-20T08:37:40.250Z,51.212128
2022-09-20T08:39:59.026Z,51.211868
2022-09-20T08:40:41.776Z,51.211990
2022-09-20T08:41:39.666Z,51.212074
2022-09-20T08:42:44.418Z,51.211815
2022-09-20T08:43:45.677Z,51.211853
2022-09-20T08:44:45.280Z,51.212006
2022-09-20T08:45:40.787Z,51.212009
2022-09-20T08:46:39.551Z,51.212029
2022-09-20T08:47:39.620Z,51.211987
2022-09-20T08:48:39.795Z,51.211929
2022-09-20T08:49:40.518Z,51.211983
2022-09-20T08:50:40.443Z,51.212059
2022-09-20T08:51:40.559Z,51.211887
2022-09-20T08:52:40.969Z,51.212086
2022-09-20T08:53:39.502Z,51.212055
2022-09-20T08:54:39.518Z,51.212059
2022-09-20T08:55:39.524Z,51.212063
2022-09-20T08:56:39.620Z,51.212120
2022-09-20T08:57:39.483Z,51.212124
2022-09-20T08:58:39.494Z,51.212147
2022-09-20T08:59:39.455Z,51.212101
2022-09-20T09:00:39.467Z,51.212124
2022-09-20T09:01:39.438Z,51.212093
2022-09-20T09:02:39.520Z,51.212063
2022-09-20T09:03:39.438Z,51.212120
2022-09-20T09:04:39.463Z,51.211952
2022-09-20T09:05:39.419Z,51.211994
2022-09-20T09:06:39.427Z,51.212032
2022-09-20T09:07:39.413Z,51.212059
2022-09-20T09:08:39.424Z,51.212074
2022-09-20T09:09:39.427Z,51.212021
2022-09-20T09:10:42.832Z,51.211945
2022-09-20T09:11:45.844Z,51.211998
2022-09-20T09:12:40.387Z,51.211929
2022-09-20T09:13:39.374Z,51.211975
2022-09-20T09:14:39.357Z,51.212063
2022-09-20T09:15:39.359Z,51.212067
2022-09-20T09:16:39.397Z,51.212158
2022-09-20T09:17:39.338Z,51.212132
2022-09-20T09:18:39.372Z,51.212116
2022-09-20T09:19:39.322Z,51.212170
2022-09-20T09:20:39.310Z,51.212067
2022-09-20T09:21:39.399Z,51.211956
2022-09-20T09:22:39.303Z,51.211960
2022-09-20T09:23:39.791Z,51.211990
2022-09-20T09:24:39.322Z,51.212070
2022-09-20T09:25:39.302Z,51.212017
2022-09-20T09:26:39.912Z,51.212040
2022-09-20T09:27:39.267Z,51.212078
2022-09-20T09:28:39.266Z,51.212009
2022-09-20T09:29:39.266Z,51.211975
2022-09-20T09:30:39.265Z,51.211838
2022-09-20T09:31:39.257Z,51.211746
2022-09-20T09:32:39.239Z,51.212044
2022-09-20T09:33:39.234Z,51.212048
2022-09-20T09:34:39.246Z,51.212013
2022-09-20T09:35:39.219Z,51.212067
2022-09-20T09:36:39.218Z,51.212032
2022-09-20T09:37:39.222Z,51.212151
2022-09-20T09:38:39.206Z,51.212086
2022-09-20T09:39:39.198Z,51.211929
2022-09-20T09:40:39.238Z,51.211948
2022-09-20T09:41:39.182Z,51.211964
2022-09-20T09:42:39.170Z,51.212029
2022-09-20T09:43:39.170Z,51.211983
2022-09-20T09:44:39.229Z,51.211983
2022-09-20T09:45:39.344Z,51.212044
2022-09-20T09:46:39.138Z,51.212002
2022-09-20T09:47:39.142Z,51.212048
2022-09-20T09:48:40.222Z,51.212097
2022-09-20T09:49:40.169Z,51.212101
2022-09-20T09:50:39.168Z,51.211926
2022-09-20T09:51:39.144Z,51.211952
2022-09-20T09:52:39.115Z,51.212006
2022-09-20T09:53:39.148Z,51.212025
2022-09-20T09:54:39.108Z,51.211987
2022-09-20T09:55:39.115Z,51.212036
2022-09-20T09:56:39.105Z,51.212090
2022-09-20T09:57:39.131Z,51.212093
2022-09-20T09:58:39.080Z,51.212002
2022-09-20T09:59:39.083Z,51.211994
2022-09-20T10:00:39.083Z,51.212086
2022-09-20T10:01:39.091Z,51.211975
2022-09-20T10:02:39.115Z,51.212082
2022-09-20T10:03:39.082Z,51.211960
2022-09-20T10:04:39.041Z,51.211998
2022-09-20T10:05:39.040Z,51.212017
2022-09-20T10:06:39.055Z,51.211910
2022-09-20T10:07:39.016Z,51.211926
2022-09-20T10:08:39.026Z,51.211937
2022-09-20T10:09:39.016Z,51.212048
2022-09-20T10:10:39.026Z,51.212013
2022-09-20T10:11:38.999Z,51.212101
2022-09-20T10:12:38.970Z,51.212112
2022-09-20T10:13:40.810Z,51.212212
2022-09-20T10:14:40.000Z,51.212318
2022-09-20T10:15:38.955Z,51.212189
2022-09-20T10:16:39.026Z,51.211922
2022-09-20T10:17:38.998Z,51.212063
2022-09-20T10:18:38.922Z,51.212143
2022-09-20T10:19:38.930Z,51.212147
2022-09-20T10:20:38.955Z,51.212166
2022-09-20T10:21:38.940Z,51.211975
2022-09-20T10:22:38.940Z,51.212063
2022-09-20T10:24:02.074Z,51.212078
2022-09-20T10:24:40.903Z,51.211922
2022-09-20T10:25:38.976Z,51.211987
2022-09-20T10:26:38.904Z,51.212025
2022-09-20T10:27:38.880Z,51.211994
2022-09-20T10:28:38.940Z,51.211990
2022-09-20T10:29:39.868Z,51.212200
2022-09-20T10:30:38.918Z,51.212223
2022-09-20T10:31:38.887Z,51.212219
2022-09-20T10:32:39.855Z,51.212143
2022-09-20T10:33:38.864Z,51.212166
2022-09-20T10:34:38.861Z,51.212112
2022-09-20T10:35:38.866Z,51.212170
2022-09-20T10:36:38.901Z,51.212170
2022-09-20T10:37:38.848Z,51.212166
2022-09-20T10:38:38.928Z,51.212227
2022-09-20T10:39:38.811Z,51.212364
2022-09-20T10:40:38.901Z,51.212307
2022-09-20T10:41:38.795Z,51.212151
2022-09-20T10:42:38.785Z,51.212261
2022-09-20T10:43:38.847Z,51.212322
2022-09-20T10:44:38.768Z,51.212246
2022-09-20T10:46:14.533Z,51.212242
2022-09-20T10:46:40.867Z,51.212143
2022-09-20T10:47:38.795Z,51.212090
2022-09-20T10:48:38.748Z,51.212090
2022-09-20T10:49:38.779Z,51.212170
2022-09-20T10:50:38.739Z,51.212234
2022-09-20T10:51:38.783Z,51.212242
2022-09-20T10:52:38.836Z,51.212151
2022-09-20T10:53:38.715Z,51.212135
2022-09-20T10:54:38.711Z,51.212189
2022-09-20T10:55:38.712Z,51.212177
2022-09-20T10:56:38.752Z,51.212143
2022-09-20T10:57:41.151Z,51.212181
2022-09-20T10:58:38.685Z,51.212238
2022-09-20T10:59:38.788Z,51.212177
2022-09-20T11:00:40.041Z,51.212261
2022-09-20T11:01:38.748Z,51.212204
2022-09-20T11:02:38.734Z,51.212200
2022-09-20T11:03:38.664Z,51.212231
2022-09-20T11:04:38.676Z,51.212219
2022-09-20T11:05:38.639Z,51.212227
2022-09-20T11:06:38.653Z,51.212265
2022-09-20T11:07:38.618Z,51.212238
2022-09-20T11:08:38.828Z,51.212234
2022-09-20T11:09:38.632Z,51.212257
2022-09-20T11:10:38.629Z,51.212250
2022-09-20T11:11:38.612Z,51.212170
2022-09-20T11:12:38.581Z,51.212151
2022-09-20T11:13:38.652Z,51.212151
2022-09-20T11:14:38.593Z,51.212185
2022-09-20T11:15:38.641Z,51.212166
2022-09-20T11:16:38.656Z,51.212208
2022-09-20T11:17:38.552Z,51.212185
2022-09-20T11:18:38.549Z,51.212074
2022-09-20T11:19:38.544Z,51.212017
2022-09-20T11:20:38.551Z,51.212128
2022-09-20T11:21:38.536Z,51.212112
2022-09-20T11:22:38.520Z,51.212147
2022-09-20T11:23:38.568Z,51.212044
2022-09-20T11:24:38.518Z,51.212055
2022-09-20T11:25:38.549Z,51.212185
2022-09-20T11:26:38.505Z,51.212200
2022-09-20T11:27:38.529Z,51.212181